Terminal Aerodrome Forecast
Issued by NWS

Home | Current Version | Previous Version | Graphics & Text | Print | Product List | Glossary On
Versions: 1 2 3 4 5 6 7 8 9 10 11 12 13 14
252
FTUS42 KMHX 061743
TAFPGV
TAF
KPGV 061743Z 0618/0718 03006KT P6SM SCT250
     FM062300 04005KT P6SM OVC060
     FM071300 03013G20KT P6SM -RA OVC030
      AMD LTD TO CLD VIS AND WIND=

USA.gov is the U.S. government's official web portal to all federal, state and local government web resources and services.